Decoded Metar for KBFM (MOBILE in AL, USA) (IATA:BFM) | Meteo·Mobile Aviation Weather
aviador You're here:

KBFM Decoded Metar

MOBILE in AL, USA
Report Time2019-01-19 05:53:00
UTC Time2019-01-19 06:15:05
Flight Rules lifr LIFR
Wind150° at 05 kt
W.Decomp.*RWY 14: 4.9 kt HW 1.0 kt RCW
RWY 18: 4.4 kt HW 2.4 kt LCW
W.Rank150° ranks 3
Current wind is below 150° avg. (8.2)
Visibility9999 m
Phenomena:N/A
Clouds:Overcast 004 Hf
Expected CloudBase > 400 ft AGL from Temp-Dew spread
Ceiling400 ft
Temp16°C (ISA +1)
Dew Point15°C (94% RH)
AAT15.8°C
QNH1015 hPa
Density Alt358 ft
Elevation66 ft
Report Wrong Elevation
Raw Report
METAR KBFM 190553Z AUTO 15005KT 8SM OVC004 16/15 A2998 RMK AO2 SLP152
T01560150 10161 20150 401940144 57012=

Extra information for KBFM:More info

Metar Taf Metar & Taf Last 4 Metars F.Rules Stats Wind Profile Meteogram Temp Stats Airport Information Weather charts Add Link Nearby VenuesMetar ALERT Operation Metar Decoded Social comments

AIRNAV info for KBFM